sensor_id;sensor_type;location;lat;lon;timestamp;temperature;humidity
69006;SHT31;56061;51.748;19.620;2023-08-12T00:01:58;11.39;78.00
69006;SHT31;56061;51.748;19.620;2023-08-12T00:04:25;11.36;78.13
69006;SHT31;56061;51.748;19.620;2023-08-12T00:06:51;11.36;78.20
69006;SHT31;56061;51.748;19.620;2023-08-12T00:09:18;11.35;78.25
69006;SHT31;56061;51.748;19.620;2023-08-12T00:11:44;11.36;78.19
69006;SHT31;56061;51.748;19.620;2023-08-12T00:14:11;11.38;78.07
69006;SHT31;56061;51.748;19.620;2023-08-12T00:16:37;11.38;78.09
69006;SHT31;56061;51.748;19.620;2023-08-12T00:19:04;11.38;78.03
69006;SHT31;56061;51.748;19.620;2023-08-12T00:21:30;11.35;78.24
69006;SHT31;56061;51.748;19.620;2023-08-12T00:23:57;11.31;78.43
69006;SHT31;56061;51.748;19.620;2023-08-12T00:26:23;11.30;78.48
69006;SHT31;56061;51.748;19.620;2023-08-12T00:28:50;11.27;78.50
69006;SHT31;56061;51.748;19.620;2023-08-12T00:31:17;11.27;78.59
69006;SHT31;56061;51.748;19.620;2023-08-12T00:33:44;11.31;78.66
69006;SHT31;56061;51.748;19.620;2023-08-12T00:36:10;11.35;78.49
69006;SHT31;56061;51.748;19.620;2023-08-12T00:38:37;11.37;78.33
69006;SHT31;56061;51.748;19.620;2023-08-12T00:41:03;11.38;78.33
69006;SHT31;56061;51.748;19.620;2023-08-12T00:43:30;11.36;78.34
69006;SHT31;56061;51.748;19.620;2023-08-12T00:45:56;11.29;78.50
69006;SHT31;56061;51.748;19.620;2023-08-12T00:48:23;11.25;78.90
69006;SHT31;56061;51.748;19.620;2023-08-12T00:50:51;11.26;79.10
69006;SHT31;56061;51.748;19.620;2023-08-12T00:53:18;11.30;79.21
69006;SHT31;56061;51.748;19.620;2023-08-12T00:55:45;11.34;79.34
69006;SHT31;56061;51.748;19.620;2023-08-12T00:58:12;11.39;79.35
69006;SHT31;56061;51.748;19.620;2023-08-12T01:00:38;11.43;79.26
69006;SHT31;56061;51.748;19.620;2023-08-12T01:03:05;11.44;79.04
69006;SHT31;56061;51.748;19.620;2023-08-12T01:05:32;11.40;78.83
69006;SHT31;56061;51.748;19.620;2023-08-12T01:07:59;11.35;78.78
69006;SHT31;56061;51.748;19.620;2023-08-12T01:10:28;11.23;78.57
69006;SHT31;56061;51.748;19.620;2023-08-12T01:15:56;11.02;78.88
69006;SHT31;56061;51.748;19.620;2023-08-12T01:18:27;10.92;78.98
69006;SHT31;56061;51.748;19.620;2023-08-12T01:20:54;10.84;79.11
69006;SHT31;56061;51.748;19.620;2023-08-12T01:23:21;10.80;79.11
69006;SHT31;56061;51.748;19.620;2023-08-12T01:25:48;10.77;78.99
69006;SHT31;56061;51.748;19.620;2023-08-12T01:28:15;10.75;79.04
69006;SHT31;56061;51.748;19.620;2023-08-12T01:31:29;10.76;79.14
69006;SHT31;56061;51.748;19.620;2023-08-12T01:33:45;10.73;79.19
69006;SHT31;56061;51.748;19.620;2023-08-12T01:36:18;10.70;79.17
69006;SHT31;56061;51.748;19.620;2023-08-12T01:38:47;10.71;79.44
69006;SHT31;56061;51.748;19.620;2023-08-12T01:41:17;10.73;79.49
69006;SHT31;56061;51.748;19.620;2023-08-12T01:43:47;10.70;79.39
69006;SHT31;56061;51.748;19.620;2023-08-12T01:46:13;10.71;79.46
69006;SHT31;56061;51.748;19.620;2023-08-12T01:48:40;10.72;79.41
69006;SHT31;56061;51.748;19.620;2023-08-12T01:51:06;10.70;79.32
69006;SHT31;56061;51.748;19.620;2023-08-12T01:53:33;10.66;79.40
69006;SHT31;56061;51.748;19.620;2023-08-12T01:55:59;10.59;79.45
69006;SHT31;56061;51.748;19.620;2023-08-12T01:58:26;10.50;79.48
69006;SHT31;56061;51.748;19.620;2023-08-12T02:00:53;10.41;79.61
69006;SHT31;56061;51.748;19.620;2023-08-12T02:03:19;10.37;79.71
69006;SHT31;56061;51.748;19.620;2023-08-12T02:05:46;10.31;79.79
69006;SHT31;56061;51.748;19.620;2023-08-12T02:08:12;10.28;79.81
69006;SHT31;56061;51.748;19.620;2023-08-12T02:10:39;10.25;79.89
69006;SHT31;56061;51.748;19.620;2023-08-12T02:13:05;10.22;80.05
69006;SHT31;56061;51.748;19.620;2023-08-12T02:15:32;10.24;80.14
69006;SHT31;56061;51.748;19.620;2023-08-12T02:17:58;10.24;80.18
69006;SHT31;56061;51.748;19.620;2023-08-12T02:20:25;10.25;80.23
69006;SHT31;56061;51.748;19.620;2023-08-12T02:22:51;10.30;80.32
69006;SHT31;56061;51.748;19.620;2023-08-12T02:25:18;10.37;80.56
69006;SHT31;56061;51.748;19.620;2023-08-12T02:27:44;10.44;80.46
69006;SHT31;56061;51.748;19.620;2023-08-12T02:30:11;10.48;80.44
69006;SHT31;56061;51.748;19.620;2023-08-12T02:32:38;10.51;80.30
69006;SHT31;56061;51.748;19.620;2023-08-12T02:35:04;10.52;80.09
69006;SHT31;56061;51.748;19.620;2023-08-12T02:37:31;10.57;80.28
69006;SHT31;56061;51.748;19.620;2023-08-12T02:39:58;10.61;80.20
69006;SHT31;56061;51.748;19.620;2023-08-12T02:42:24;10.66;80.17
69006;SHT31;56061;51.748;19.620;2023-08-12T02:44:51;10.66;79.97
69006;SHT31;56061;51.748;19.620;2023-08-12T02:47:17;10.60;79.71
69006;SHT31;56061;51.748;19.620;2023-08-12T02:49:44;10.53;79.74
69006;SHT31;56061;51.748;19.620;2023-08-12T02:52:10;10.49;79.83
69006;SHT31;56061;51.748;19.620;2023-08-12T02:54:36;10.44;79.88
69006;SHT31;56061;51.748;19.620;2023-08-12T02:57:03;10.36;79.89
69006;SHT31;56061;51.748;19.620;2023-08-12T02:59:29;10.28;80.01
69006;SHT31;56061;51.748;19.620;2023-08-12T03:01:56;10.21;80.07
69006;SHT31;56061;51.748;19.620;2023-08-12T03:04:22;10.14;80.18
69006;SHT31;56061;51.748;19.620;2023-08-12T03:06:49;10.09;80.28
69006;SHT31;56061;51.748;19.620;2023-08-12T03:09:15;10.07;80.42
69006;SHT31;56061;51.748;19.620;2023-08-12T03:11:44;10.06;80.55
69006;SHT31;56061;51.748;19.620;2023-08-12T03:14:10;10.05;80.53
69006;SHT31;56061;51.748;19.620;2023-08-12T03:16:37;10.04;80.52
69006;SHT31;56061;51.748;19.620;2023-08-12T03:19:04;10.02;80.50
69006;SHT31;56061;51.748;19.620;2023-08-12T03:21:30;10.04;80.48
69006;SHT31;56061;51.748;19.620;2023-08-12T03:23:57;10.08;80.50
69006;SHT31;56061;51.748;19.620;2023-08-12T03:26:23;10.12;80.47
69006;SHT31;56061;51.748;19.620;2023-08-12T03:28:49;10.13;80.34
69006;SHT31;56061;51.748;19.620;2023-08-12T03:31:16;10.13;80.36
69006;SHT31;56061;51.748;19.620;2023-08-12T03:33:42;10.13;80.44
69006;SHT31;56061;51.748;19.620;2023-08-12T03:36:09;10.15;80.58
69006;SHT31;56061;51.748;19.620;2023-08-12T03:38:36;10.16;80.58
69006;SHT31;56061;51.748;19.620;2023-08-12T03:41:03;10.19;80.61
69006;SHT31;56061;51.748;19.620;2023-08-12T03:43:29;10.20;80.62
69006;SHT31;56061;51.748;19.620;2023-08-12T03:45:56;10.20;80.68
69006;SHT31;56061;51.748;19.620;2023-08-12T03:48:22;10.21;80.77
69006;SHT31;56061;51.748;19.620;2023-08-12T03:50:49;10.25;80.86
69006;SHT31;56061;51.748;19.620;2023-08-12T03:53:16;10.30;80.92
69006;SHT31;56061;51.748;19.620;2023-08-12T03:55:43;10.39;80.93
69006;SHT31;56061;51.748;19.620;2023-08-12T03:58:10;10.47;80.93
69006;SHT31;56061;51.748;19.620;2023-08-12T04:00:40;10.52;80.94
69006;SHT31;56061;51.748;19.620;2023-08-12T04:03:09;10.54;81.07
69006;SHT31;56061;51.748;19.620;2023-08-12T04:05:46;10.60;81.15
69006;SHT31;56061;51.748;19.620;2023-08-12T04:08:32;10.67;81.20
69006;SHT31;56061;51.748;19.620;2023-08-12T04:10:59;10.75;81.18
69006;SHT31;56061;51.748;19.620;2023-08-12T04:13:26;10.84;81.25
69006;SHT31;56061;51.748;19.620;2023-08-12T04:15:56;10.94;81.29
69006;SHT31;56061;51.748;19.620;2023-08-12T04:18:23;11.02;81.26
69006;SHT31;56061;51.748;19.620;2023-08-12T04:20:49;11.11;81.26
69006;SHT31;56061;51.748;19.620;2023-08-12T04:23:17;11.21;81.22
69006;SHT31;56061;51.748;19.620;2023-08-12T04:25:44;11.31;81.09
69006;SHT31;56061;51.748;19.620;2023-08-12T04:28:30;11.42;81.04
69006;SHT31;56061;51.748;19.620;2023-08-12T04:30:56;11.53;80.89
69006;SHT31;56061;51.748;19.620;2023-08-12T04:33:23;11.63;80.79
69006;SHT31;56061;51.748;19.620;2023-08-12T04:35:49;11.74;80.70
69006;SHT31;56061;51.748;19.620;2023-08-12T04:38:16;11.85;80.58
69006;SHT31;56061;51.748;19.620;2023-08-12T04:40:55;12.00;80.24
69006;SHT31;56061;51.748;19.620;2023-08-12T04:43:21;12.17;79.96
69006;SHT31;56061;51.748;19.620;2023-08-12T04:45:48;12.34;79.81
69006;SHT31;56061;51.748;19.620;2023-08-12T04:48:15;12.49;79.42
69006;SHT31;56061;51.748;19.620;2023-08-12T04:50:50;12.62;79.40
69006;SHT31;56061;51.748;19.620;2023-08-12T04:53:17;12.77;79.39
69006;SHT31;56061;51.748;19.620;2023-08-12T04:55:43;12.89;79.32
69006;SHT31;56061;51.748;19.620;2023-08-12T04:58:12;13.01;79.37
69006;SHT31;56061;51.748;19.620;2023-08-12T05:00:39;13.17;79.16
69006;SHT31;56061;51.748;19.620;2023-08-12T05:03:08;13.30;78.61
69006;SHT31;56061;51.748;19.620;2023-08-12T05:05:35;13.46;78.15
69006;SHT31;56061;51.748;19.620;2023-08-12T05:08:02;13.62;78.05
69006;SHT31;56061;51.748;19.620;2023-08-12T05:10:28;13.78;77.53
69006;SHT31;56061;51.748;19.620;2023-08-12T05:12:57;13.92;77.05
69006;SHT31;56061;51.748;19.620;2023-08-12T05:15:24;14.08;76.98
69006;SHT31;56061;51.748;19.620;2023-08-12T05:17:54;14.23;76.82
69006;SHT31;56061;51.748;19.620;2023-08-12T05:20:20;14.35;76.72
69006;SHT31;56061;51.748;19.620;2023-08-12T05:22:47;14.48;76.80
69006;SHT31;56061;51.748;19.620;2023-08-12T05:25:13;14.63;76.78
69006;SHT31;56061;51.748;19.620;2023-08-12T05:27:40;14.78;76.67
69006;SHT31;56061;51.748;19.620;2023-08-12T05:30:09;14.94;76.46
69006;SHT31;56061;51.748;19.620;2023-08-12T05:32:44;15.11;76.50
69006;SHT31;56061;51.748;19.620;2023-08-12T05:35:10;15.30;76.61
69006;SHT31;56061;51.748;19.620;2023-08-12T05:37:37;15.49;76.25
69006;SHT31;56061;51.748;19.620;2023-08-12T05:40:03;15.65;75.98
69006;SHT31;56061;51.748;19.620;2023-08-12T05:42:35;15.78;75.22
69006;SHT31;56061;51.748;19.620;2023-08-12T05:45:06;15.91;74.10
69006;SHT31;56061;51.748;19.620;2023-08-12T05:47:34;16.05;72.85
69006;SHT31;56061;51.748;19.620;2023-08-12T05:50:00;16.17;71.95
69006;SHT31;56061;51.748;19.620;2023-08-12T05:52:27;16.32;71.24
69006;SHT31;56061;51.748;19.620;2023-08-12T05:54:54;16.47;70.67
69006;SHT31;56061;51.748;19.620;2023-08-12T05:57:21;16.60;70.26
69006;SHT31;56061;51.748;19.620;2023-08-12T05:59:47;16.73;69.91
69006;SHT31;56061;51.748;19.620;2023-08-12T06:02:14;16.86;69.65
69006;SHT31;56061;51.748;19.620;2023-08-12T06:04:41;16.97;69.22
69006;SHT31;56061;51.748;19.620;2023-08-12T06:07:07;17.08;68.85
69006;SHT31;56061;51.748;19.620;2023-08-12T06:09:34;17.18;68.61
69006;SHT31;56061;51.748;19.620;2023-08-12T06:12:01;17.28;68.26
69006;SHT31;56061;51.748;19.620;2023-08-12T06:14:28;17.39;67.73
69006;SHT31;56061;51.748;19.620;2023-08-12T06:17:02;17.51;67.30
69006;SHT31;56061;51.748;19.620;2023-08-12T06:19:28;17.63;66.78
69006;SHT31;56061;51.748;19.620;2023-08-12T06:21:55;17.77;66.34
69006;SHT31;56061;51.748;19.620;2023-08-12T06:24:21;17.88;66.26
69006;SHT31;56061;51.748;19.620;2023-08-12T06:26:48;17.98;65.65
69006;SHT31;56061;51.748;19.620;2023-08-12T06:32:15;18.16;64.38
69006;SHT31;56061;51.748;19.620;2023-08-12T06:34:41;18.26;63.94
69006;SHT31;56061;51.748;19.620;2023-08-12T06:40:00;18.55;63.11
69006;SHT31;56061;51.748;19.620;2023-08-12T06:42:27;18.69;62.73
69006;SHT31;56061;51.748;19.620;2023-08-12T06:44:54;18.80;62.44
69006;SHT31;56061;51.748;19.620;2023-08-12T06:47:26;18.92;61.67
69006;SHT31;56061;51.748;19.620;2023-08-12T06:49:54;19.06;61.38
69006;SHT31;56061;51.748;19.620;2023-08-12T06:52:20;19.17;60.90
69006;SHT31;56061;51.748;19.620;2023-08-12T06:54:48;19.26;60.41
69006;SHT31;56061;51.748;19.620;2023-08-12T06:57:14;19.36;60.48
69006;SHT31;56061;51.748;19.620;2023-08-12T07:02:22;19.56;59.48
69006;SHT31;56061;51.748;19.620;2023-08-12T07:04:49;19.66;58.91
69006;SHT31;56061;51.748;19.620;2023-08-12T07:07:16;19.77;58.72
69006;SHT31;56061;51.748;19.620;2023-08-12T07:09:42;19.89;58.24
69006;SHT31;56061;51.748;19.620;2023-08-12T07:12:12;20.00;57.79
69006;SHT31;56061;51.748;19.620;2023-08-12T07:14:39;20.06;57.25
69006;SHT31;56061;51.748;19.620;2023-08-12T07:17:05;20.16;56.95
69006;SHT31;56061;51.748;19.620;2023-08-12T07:19:32;20.23;56.71
69006;SHT31;56061;51.748;19.620;2023-08-12T07:21:58;20.30;56.83
69006;SHT31;56061;51.748;19.620;2023-08-12T07:24:25;20.38;56.49
69006;SHT31;56061;51.748;19.620;2023-08-12T07:27:02;20.46;56.00
69006;SHT31;56061;51.748;19.620;2023-08-12T07:29:32;20.56;56.32
69006;SHT31;56061;51.748;19.620;2023-08-12T07:31:59;20.67;56.37
69006;SHT31;56061;51.748;19.620;2023-08-12T07:34:25;20.77;56.19
69006;SHT31;56061;51.748;19.620;2023-08-12T07:37:00;20.87;55.08
69006;SHT31;56061;51.748;19.620;2023-08-12T07:39:26;20.93;54.24
69006;SHT31;56061;51.748;19.620;2023-08-12T07:41:53;20.98;53.72
69006;SHT31;56061;51.748;19.620;2023-08-12T07:44:19;21.06;53.53
69006;SHT31;56061;51.748;19.620;2023-08-12T07:46:45;21.14;53.50
69006;SHT31;56061;51.748;19.620;2023-08-12T07:49:33;21.22;53.62
69006;SHT31;56061;51.748;19.620;2023-08-12T07:51:59;21.30;52.78
69006;SHT31;56061;51.748;19.620;2023-08-12T08:00:00;21.50;50.81
69006;SHT31;56061;51.748;19.620;2023-08-12T08:02:27;21.54;50.81
69006;SHT31;56061;51.748;19.620;2023-08-12T08:04:53;21.62;50.47
69006;SHT31;56061;51.748;19.620;2023-08-12T08:07:24;21.65;50.62
69006;SHT31;56061;51.748;19.620;2023-08-12T08:09:51;21.69;50.58
69006;SHT31;56061;51.748;19.620;2023-08-12T08:12:20;21.80;50.77
69006;SHT31;56061;51.748;19.620;2023-08-12T08:14:47;21.89;50.67
69006;SHT31;56061;51.748;19.620;2023-08-12T08:17:13;22.01;50.71
69006;SHT31;56061;51.748;19.620;2023-08-12T08:22:39;22.18;50.52
69006;SHT31;56061;51.748;19.620;2023-08-12T08:25:05;22.24;50.49
69006;SHT31;56061;51.748;19.620;2023-08-12T08:30:10;22.41;50.10
69006;SHT31;56061;51.748;19.620;2023-08-12T08:32:37;22.47;49.11
69006;SHT31;56061;51.748;19.620;2023-08-12T08:35:04;22.49;48.74
69006;SHT31;56061;51.748;19.620;2023-08-12T08:37:31;22.50;48.49
69006;SHT31;56061;51.748;19.620;2023-08-12T08:40:08;22.53;48.44
69006;SHT31;56061;51.748;19.620;2023-08-12T08:42:38;22.54;48.04
69006;SHT31;56061;51.748;19.620;2023-08-12T08:45:11;22.53;48.62
69006;SHT31;56061;51.748;19.620;2023-08-12T08:47:39;22.59;48.63
69006;SHT31;56061;51.748;19.620;2023-08-12T08:50:14;22.64;48.51
69006;SHT31;56061;51.748;19.620;2023-08-12T08:52:41;22.67;48.61
69006;SHT31;56061;51.748;19.620;2023-08-12T08:55:15;22.71;48.48
69006;SHT31;56061;51.748;19.620;2023-08-12T08:57:44;22.69;47.95
69006;SHT31;56061;51.748;19.620;2023-08-12T09:00:21;22.72;48.16
69006;SHT31;56061;51.748;19.620;2023-08-12T09:02:50;22.79;47.80
69006;SHT31;56061;51.748;19.620;2023-08-12T09:05:25;22.83;47.61
69006;SHT31;56061;51.748;19.620;2023-08-12T09:07:54;22.82;47.36
69006;SHT31;56061;51.748;19.620;2023-08-12T09:10:28;22.86;47.77
69006;SHT31;56061;51.748;19.620;2023-08-12T09:12:56;22.95;46.95
69006;SHT31;56061;51.748;19.620;2023-08-12T09:15:23;22.99;47.12
69006;SHT31;56061;51.748;19.620;2023-08-12T09:17:50;23.01;46.80
69006;SHT31;56061;51.748;19.620;2023-08-12T09:20:17;23.03;46.70
69006;SHT31;56061;51.748;19.620;2023-08-12T09:23:01;23.07;47.03
69006;SHT31;56061;51.748;19.620;2023-08-12T09:25:29;23.14;47.39
69006;SHT31;56061;51.748;19.620;2023-08-12T09:27:59;23.19;47.28
69006;SHT31;56061;51.748;19.620;2023-08-12T09:30:29;23.29;47.74
69006;SHT31;56061;51.748;19.620;2023-08-12T09:33:00;23.40;47.46
69006;SHT31;56061;51.748;19.620;2023-08-12T09:35:37;23.48;46.65
69006;SHT31;56061;51.748;19.620;2023-08-12T09:38:07;23.53;46.26
69006;SHT31;56061;51.748;19.620;2023-08-12T09:40:39;23.58;45.28
69006;SHT31;56061;51.748;19.620;2023-08-12T09:43:10;23.62;45.14
69006;SHT31;56061;51.748;19.620;2023-08-12T09:45:38;23.68;45.86
69006;SHT31;56061;51.748;19.620;2023-08-12T09:48:05;23.76;46.21
69006;SHT31;56061;51.748;19.620;2023-08-12T09:53:10;24.00;46.07
69006;SHT31;56061;51.748;19.620;2023-08-12T09:55:52;24.08;44.95
69006;SHT31;56061;51.748;19.620;2023-08-12T09:58:21;24.10;44.78
69006;SHT31;56061;51.748;19.620;2023-08-12T10:00:50;24.13;44.98
69006;SHT31;56061;51.748;19.620;2023-08-12T10:03:27;24.18;45.79
69006;SHT31;56061;51.748;19.620;2023-08-12T10:05:55;24.28;45.99
69006;SHT31;56061;51.748;19.620;2023-08-12T10:08:22;24.40;45.36
69006;SHT31;56061;51.748;19.620;2023-08-12T10:10:49;24.42;45.03
69006;SHT31;56061;51.748;19.620;2023-08-12T10:13:35;24.48;45.67
69006;SHT31;56061;51.748;19.620;2023-08-12T10:16:02;24.55;45.48
69006;SHT31;56061;51.748;19.620;2023-08-12T10:18:30;24.64;45.50
69006;SHT31;56061;51.748;19.620;2023-08-12T10:20:57;24.70;44.84
69006;SHT31;56061;51.748;19.620;2023-08-12T10:23:26;24.69;44.90
69006;SHT31;56061;51.748;19.620;2023-08-12T10:25:54;24.77;45.06
69006;SHT31;56061;51.748;19.620;2023-08-12T10:28:21;24.86;44.77
69006;SHT31;56061;51.748;19.620;2023-08-12T10:30:48;24.92;44.83
69006;SHT31;56061;51.748;19.620;2023-08-12T10:33:15;25.00;44.73
69006;SHT31;56061;51.748;19.620;2023-08-12T10:35:46;25.08;45.11
69006;SHT31;56061;51.748;19.620;2023-08-12T10:38:18;25.16;45.05
69006;SHT31;56061;51.748;19.620;2023-08-12T10:40:47;25.24;44.84
69006;SHT31;56061;51.748;19.620;2023-08-12T10:43:14;25.29;44.62
69006;SHT31;56061;51.748;19.620;2023-08-12T10:48:24;25.36;44.29
69006;SHT31;56061;51.748;19.620;2023-08-12T10:51:02;25.44;44.49
69006;SHT31;56061;51.748;19.620;2023-08-12T10:53:32;25.51;44.69
69006;SHT31;56061;51.748;19.620;2023-08-12T10:56:01;25.55;43.70
69006;SHT31;56061;51.748;19.620;2023-08-12T10:58:35;25.54;43.90
69006;SHT31;56061;51.748;19.620;2023-08-12T11:01:11;25.52;43.87
69006;SHT31;56061;51.748;19.620;2023-08-12T11:03:43;25.54;43.98
69006;SHT31;56061;51.748;19.620;2023-08-12T11:06:10;25.59;44.08
69006;SHT31;56061;51.748;19.620;2023-08-12T11:11:18;25.63;43.27
69006;SHT31;56061;51.748;19.620;2023-08-12T11:13:53;25.68;43.46
69006;SHT31;56061;51.748;19.620;2023-08-12T11:16:35;25.74;43.65
69006;SHT31;56061;51.748;19.620;2023-08-12T11:19:04;25.76;43.33
69006;SHT31;56061;51.748;19.620;2023-08-12T11:21:31;25.80;43.44
69006;SHT31;56061;51.748;19.620;2023-08-12T11:23:57;25.90;43.48
69006;SHT31;56061;51.748;19.620;2023-08-12T11:26:25;26.00;43.48
69006;SHT31;56061;51.748;19.620;2023-08-12T11:28:52;26.07;43.70
69006;SHT31;56061;51.748;19.620;2023-08-12T11:31:20;26.15;43.57
69006;SHT31;56061;51.748;19.620;2023-08-12T11:33:48;26.23;43.41
69006;SHT31;56061;51.748;19.620;2023-08-12T11:36:15;26.31;42.95
69006;SHT31;56061;51.748;19.620;2023-08-12T11:38:42;26.38;43.25
69006;SHT31;56061;51.748;19.620;2023-08-12T11:41:09;26.45;42.90
69006;SHT31;56061;51.748;19.620;2023-08-12T11:43:40;26.51;42.94
69006;SHT31;56061;51.748;19.620;2023-08-12T11:46:06;26.59;43.12
69006;SHT31;56061;51.748;19.620;2023-08-12T11:48:33;26.67;43.08
69006;SHT31;56061;51.748;19.620;2023-08-12T11:50:59;26.76;42.73
69006;SHT31;56061;51.748;19.620;2023-08-12T11:53:26;26.78;42.30
69006;SHT31;56061;51.748;19.620;2023-08-12T11:55:53;26.81;42.58
69006;SHT31;56061;51.748;19.620;2023-08-12T11:58:20;26.84;43.07
69006;SHT31;56061;51.748;19.620;2023-08-12T12:00:47;26.89;42.44
69006;SHT31;56061;51.748;19.620;2023-08-12T12:03:15;26.88;42.14
69006;SHT31;56061;51.748;19.620;2023-08-12T12:05:44;26.93;42.92
69006;SHT31;56061;51.748;19.620;2023-08-12T12:08:13;26.99;42.09
69006;SHT31;56061;51.748;19.620;2023-08-12T12:10:40;27.01;42.36
69006;SHT31;56061;51.748;19.620;2023-08-12T12:13:09;27.09;42.72
69006;SHT31;56061;51.748;19.620;2023-08-12T12:18:11;27.22;42.48
69006;SHT31;56061;51.748;19.620;2023-08-12T12:23:09;27.32;42.21
69006;SHT31;56061;51.748;19.620;2023-08-12T12:25:36;27.34;41.61
69006;SHT31;56061;51.748;19.620;2023-08-12T12:28:02;27.37;41.76
69006;SHT31;56061;51.748;19.620;2023-08-12T12:30:30;27.39;41.47
69006;SHT31;56061;51.748;19.620;2023-08-12T12:32:56;27.41;40.91
69006;SHT31;56061;51.748;19.620;2023-08-12T12:35:24;27.43;41.13
69006;SHT31;56061;51.748;19.620;2023-08-12T12:37:50;27.49;40.93
69006;SHT31;56061;51.748;19.620;2023-08-12T12:40:17;27.53;40.39
69006;SHT31;56061;51.748;19.620;2023-08-12T12:42:44;27.56;40.89
69006;SHT31;56061;51.748;19.620;2023-08-12T12:45:10;27.60;40.36
69006;SHT31;56061;51.748;19.620;2023-08-12T12:47:37;27.66;40.58
69006;SHT31;56061;51.748;19.620;2023-08-12T12:50:04;27.76;40.90
69006;SHT31;56061;51.748;19.620;2023-08-12T12:52:32;27.88;40.99
69006;SHT31;56061;51.748;19.620;2023-08-12T12:54:58;28.01;41.02
69006;SHT31;56061;51.748;19.620;2023-08-12T12:57:26;28.13;40.77
69006;SHT31;56061;51.748;19.620;2023-08-12T12:59:53;28.20;40.61
69006;SHT31;56061;51.748;19.620;2023-08-12T13:02:19;28.24;40.46
69006;SHT31;56061;51.748;19.620;2023-08-12T13:04:48;28.27;40.64
69006;SHT31;56061;51.748;19.620;2023-08-12T13:07:15;28.34;40.59
69006;SHT31;56061;51.748;19.620;2023-08-12T13:09:42;28.38;39.47
69006;SHT31;56061;51.748;19.620;2023-08-12T13:12:08;28.41;40.11
69006;SHT31;56061;51.748;19.620;2023-08-12T13:14:35;28.50;40.13
69006;SHT31;56061;51.748;19.620;2023-08-12T13:17:02;28.59;40.09
69006;SHT31;56061;51.748;19.620;2023-08-12T13:19:38;28.65;39.96
69006;SHT31;56061;51.748;19.620;2023-08-12T13:22:04;28.71;39.66
69006;SHT31;56061;51.748;19.620;2023-08-12T13:24:31;28.74;39.87
69006;SHT31;56061;51.748;19.620;2023-08-12T13:26:58;28.82;40.07
69006;SHT31;56061;51.748;19.620;2023-08-12T13:32:09;28.95;39.30
69006;SHT31;56061;51.748;19.620;2023-08-12T13:34:36;29.02;39.74
69006;SHT31;56061;51.748;19.620;2023-08-12T13:39:54;29.16;39.16
69006;SHT31;56061;51.748;19.620;2023-08-12T13:42:21;29.25;39.26
69006;SHT31;56061;51.748;19.620;2023-08-12T13:45:05;29.31;39.31
69006;SHT31;56061;51.748;19.620;2023-08-12T13:48:07;29.36;38.82
69006;SHT31;56061;51.748;19.620;2023-08-12T13:50:34;29.39;38.47
69006;SHT31;56061;51.748;19.620;2023-08-12T13:53:01;29.42;38.28
69006;SHT31;56061;51.748;19.620;2023-08-12T13:55:28;29.45;38.28
69006;SHT31;56061;51.748;19.620;2023-08-12T13:57:54;29.54;38.66
69006;SHT31;56061;51.748;19.620;2023-08-12T14:00:24;29.60;39.06
69006;SHT31;56061;51.748;19.620;2023-08-12T14:02:51;29.68;38.68
69006;SHT31;56061;51.748;19.620;2023-08-12T14:05:17;29.76;39.30
69006;SHT31;56061;51.748;19.620;2023-08-12T14:10:39;29.96;38.64
69006;SHT31;56061;51.748;19.620;2023-08-12T14:13:06;29.97;38.20
69006;SHT31;56061;51.748;19.620;2023-08-12T14:24:01;30.03;38.46
69006;SHT31;56061;51.748;19.620;2023-08-12T14:29:34;30.11;38.28
69006;SHT31;56061;51.748;19.620;2023-08-12T14:32:10;30.14;38.59
69006;SHT31;56061;51.748;19.620;2023-08-12T14:37:14;30.25;37.95
69006;SHT31;56061;51.748;19.620;2023-08-12T14:39:41;30.26;37.34
69006;SHT31;56061;51.748;19.620;2023-08-12T14:42:07;30.26;38.02
69006;SHT31;56061;51.748;19.620;2023-08-12T14:44:43;30.40;38.38
69006;SHT31;56061;51.748;19.620;2023-08-12T14:47:17;30.58;38.00
69006;SHT31;56061;51.748;19.620;2023-08-12T14:49:45;30.69;37.47
69006;SHT31;56061;51.748;19.620;2023-08-12T14:52:19;30.78;37.44
69006;SHT31;56061;51.748;19.620;2023-08-12T14:54:49;30.81;36.89
69006;SHT31;56061;51.748;19.620;2023-08-12T14:57:16;30.86;37.28
69006;SHT31;56061;51.748;19.620;2023-08-12T15:00:03;30.92;37.37
69006;SHT31;56061;51.748;19.620;2023-08-12T15:08:04;31.01;36.46
69006;SHT31;56061;51.748;19.620;2023-08-12T15:10:31;31.00;36.16
69006;SHT31;56061;51.748;19.620;2023-08-12T15:15:50;31.14;36.74
69006;SHT31;56061;51.748;19.620;2023-08-12T15:18:18;31.19;36.40
69006;SHT31;56061;51.748;19.620;2023-08-12T15:20:45;31.24;36.75
69006;SHT31;56061;51.748;19.620;2023-08-12T15:23:20;31.30;36.78
69006;SHT31;56061;51.748;19.620;2023-08-12T15:25:46;31.29;36.47
69006;SHT31;56061;51.748;19.620;2023-08-12T15:28:13;31.28;36.47
69006;SHT31;56061;51.748;19.620;2023-08-12T15:30:40;31.28;36.67
69006;SHT31;56061;51.748;19.620;2023-08-12T15:33:06;31.27;36.19
69006;SHT31;56061;51.748;19.620;2023-08-12T15:35:33;31.29;36.77
69006;SHT31;56061;51.748;19.620;2023-08-12T15:41:00;31.29;35.85
69006;SHT31;56061;51.748;19.620;2023-08-12T15:46:13;31.25;36.15
69006;SHT31;56061;51.748;19.620;2023-08-12T15:48:40;31.21;36.50
69006;SHT31;56061;51.748;19.620;2023-08-12T15:51:09;31.20;36.56
69006;SHT31;56061;51.748;19.620;2023-08-12T15:56:12;31.28;36.53
69006;SHT31;56061;51.748;19.620;2023-08-12T15:58:39;31.35;36.13
69006;SHT31;56061;51.748;19.620;2023-08-12T16:01:07;31.39;36.48
69006;SHT31;56061;51.748;19.620;2023-08-12T16:03:33;31.41;36.31
69006;SHT31;56061;51.748;19.620;2023-08-12T16:08:55;31.39;36.04
69006;SHT31;56061;51.748;19.620;2023-08-12T16:14:34;31.45;36.63
69006;SHT31;56061;51.748;19.620;2023-08-12T16:17:00;31.45;36.86
69006;SHT31;56061;51.748;19.620;2023-08-12T16:19:27;31.46;36.77
69006;SHT31;56061;51.748;19.620;2023-08-12T16:22:07;31.49;36.27
69006;SHT31;56061;51.748;19.620;2023-08-12T16:24:34;31.49;36.32
69006;SHT31;56061;51.748;19.620;2023-08-12T16:27:01;31.40;36.11
69006;SHT31;56061;51.748;19.620;2023-08-12T16:32:33;30.90;37.20
69006;SHT31;56061;51.748;19.620;2023-08-12T16:35:00;30.77;37.61
69006;SHT31;56061;51.748;19.620;2023-08-12T16:40:10;30.66;37.68
69006;SHT31;56061;51.748;19.620;2023-08-12T16:42:44;30.59;37.71
69006;SHT31;56061;51.748;19.620;2023-08-12T16:45:11;30.53;37.81
69006;SHT31;56061;51.748;19.620;2023-08-12T16:47:56;30.47;37.41
69006;SHT31;56061;51.748;19.620;2023-08-12T16:50:26;30.46;37.37